Time;durP1;ratioP1;P1;durP2;ratioP2;P2;SDS_P1;SDS_P2;PMS_P1;PMS_P2;Temp;Humidity;BMP_temperature;BMP_pressure;BME280_temperature;BME280_humidity;BME280_pressure;Samples;Min_cycle;Max_cycle;Signal;HPM_P1;HPM_P2
2023/02/11 00:00:31;;;;;;;;;;;17.30;46.30;;;;;;5001439;28;19949;-75
2023/02/11 00:02:56;;;;;;;;;;;17.20;46.50;;;;;;5001680;28;20396;-78
2023/02/11 00:05:22;;;;;;;;;;;17.10;46.60;;;;;;5001497;28;19917;-76
2023/02/11 00:07:47;;;;;;;;;;;17.00;46.70;;;;;;5001626;28;19910;-74
2023/02/11 00:10:13;;;;;;;;;;;16.90;46.90;;;;;;5001499;28;19981;-77
2023/02/11 00:12:38;;;;;;;;;;;16.80;47.10;;;;;;5000258;28;19998;-74
2023/02/11 00:15:05;;;;;;;;;;;16.80;47.20;;;;;;5001695;28;19908;-75
2023/02/11 00:17:31;;;;;;;;;;;16.70;47.50;;;;;;5001556;28;19917;-77
2023/02/11 00:19:56;;;;;;;;;;;16.60;47.50;;;;;;5000083;28;19945;-75
2023/02/11 00:22:22;;;;;;;;;;;16.60;47.60;;;;;;5001530;28;19917;-76
2023/02/11 00:24:48;;;;;;;;;;;16.60;47.70;;;;;;5000157;28;20042;-75
2023/02/11 00:27:13;;;;;;;;;;;16.60;47.60;;;;;;5001418;28;20225;-76
2023/02/11 00:29:39;;;;;;;;;;;16.70;47.60;;;;;;5001313;28;19910;-73
2023/02/11 00:32:05;;;;;;;;;;;16.80;47.50;;;;;;5001314;28;20189;-75
2023/02/11 00:34:31;;;;;;;;;;;16.80;47.30;;;;;;4999989;28;20105;-76
2023/02/11 00:36:56;;;;;;;;;;;16.90;47.20;;;;;;5001220;28;19910;-76
2023/02/11 00:39:22;;;;;;;;;;;17.00;47.00;;;;;;5001194;28;20149;-75
2023/02/11 00:41:47;;;;;;;;;;;17.10;47.00;;;;;;5000074;28;19909;-75
2023/02/11 00:44:13;;;;;;;;;;;17.10;47.10;;;;;;5001196;28;19910;-74
2023/02/11 00:46:38;;;;;;;;;;;17.10;46.80;;;;;;5000022;28;19916;-75
2023/02/11 00:49:04;;;;;;;;;;;17.10;46.80;;;;;;5001141;28;19948;-76
2023/02/11 00:51:30;;;;;;;;;;;17.20;46.70;;;;;;5000860;28;19921;-76
2023/02/11 00:53:55;;;;;;;;;;;17.20;46.60;;;;;;5001136;28;19906;-76
2023/02/11 00:56:21;;;;;;;;;;;17.20;46.30;;;;;;5001158;28;19981;-75
2023/02/11 00:58:46;;;;;;;;;;;17.30;46.30;;;;;;5001004;28;19914;-76
2023/02/11 01:01:12;;;;;;;;;;;17.30;46.00;;;;;;5001094;28;19910;-77
2023/02/11 01:03:38;;;;;;;;;;;17.30;46.00;;;;;;5001139;28;19901;-74
2023/02/11 01:06:04;;;;;;;;;;;17.30;46.10;;;;;;5001078;28;20004;-78
2023/02/11 01:08:30;;;;;;;;;;;17.30;46.10;;;;;;5001098;28;19928;-76
2023/02/11 01:10:57;;;;;;;;;;;17.30;45.90;;;;;;5001114;28;19972;-74
2023/02/11 01:13:23;;;;;;;;;;;17.30;46.00;;;;;;5003671;28;20264;-74
2023/02/11 01:15:48;;;;;;;;;;;17.40;45.90;;;;;;5004590;28;19902;-73
2023/02/11 01:18:14;;;;;;;;;;;17.30;45.80;;;;;;5004491;28;19910;-76
2023/02/11 01:20:39;;;;;;;;;;;17.40;45.70;;;;;;5004462;28;19913;-72
2023/02/11 01:23:05;;;;;;;;;;;17.30;45.80;;;;;;5004598;28;19948;-76
2023/02/11 01:25:30;;;;;;;;;;;17.30;45.80;;;;;;5004472;28;19909;-75
2023/02/11 01:27:56;;;;;;;;;;;17.30;45.90;;;;;;5004272;28;20449;-76
2023/02/11 01:30:21;;;;;;;;;;;17.30;45.80;;;;;;5004647;28;19999;-76
2023/02/11 01:32:47;;;;;;;;;;;17.30;45.80;;;;;;5004299;28;19916;-75
2023/02/11 01:35:12;;;;;;;;;;;17.40;45.80;;;;;;5004290;28;19917;-74
2023/02/11 01:37:38;;;;;;;;;;;17.30;45.80;;;;;;5004271;28;19929;-75
2023/02/11 01:40:05;;;;;;;;;;;17.20;45.90;;;;;;5003053;28;19949;-77
2023/02/11 01:42:31;;;;;;;;;;;17.10;46.10;;;;;;5004262;28;19981;-76
2023/02/11 01:44:57;;;;;;;;;;;17.00;46.30;;;;;;5004288;28;19909;-75
2023/02/11 01:47:22;;;;;;;;;;;16.90;46.60;;;;;;5004219;28;19917;-74
2023/02/11 01:49:51;;;;;;;;;;;16.80;46.70;;;;;;5003948;28;19901;-75
2023/02/11 01:52:21;;;;;;;;;;;16.80;46.90;;;;;;5003907;28;19918;-74
2023/02/11 01:57:40;;;;;;;;;;;16.70;47.20;;;;;;5003407;28;19924;-76
2023/02/11 02:00:06;;;;;;;;;;;16.60;47.20;;;;;;5003852;28;19906;-76
2023/02/11 02:02:34;;;;;;;;;;;16.60;47.40;;;;;;5003815;28;19916;-76
2023/02/11 02:05:07;;;;;;;;;;;16.50;47.50;;;;;;5003672;28;19949;-74
2023/02/11 02:07:36;;;;;;;;;;;16.50;47.50;;;;;;5003737;28;19952;-77
2023/02/11 02:10:05;;;;;;;;;;;16.50;47.50;;;;;;5003764;28;20412;-78
2023/02/11 02:12:31;;;;;;;;;;;16.50;47.60;;;;;;5003507;28;19909;-76
2023/02/11 02:15:15;;;;;;;;;;;16.60;47.70;;;;;;5003604;28;20121;-76
2023/02/11 02:17:45;;;;;;;;;;;16.70;47.60;;;;;;5002231;28;20128;-76
2023/02/11 02:20:30;;;;;;;;;;;16.80;47.40;;;;;;5003378;28;19913;-75
2023/02/11 02:23:12;;;;;;;;;;;16.80;47.10;;;;;;5002018;28;19909;-76
2023/02/11 02:25:41;;;;;;;;;;;16.80;46.80;;;;;;5002856;28;19909;-75
2023/02/11 02:28:25;;;;;;;;;;;16.90;46.60;;;;;;5003507;28;20208;-75
2023/02/11 02:30:56;;;;;;;;;;;16.90;46.50;;;;;;5003336;28;19948;-76
2023/02/11 02:33:30;;;;;;;;;;;17.00;46.60;;;;;;5003306;28;19909;-77
2023/02/11 02:36:12;;;;;;;;;;;17.00;46.60;;;;;;5003269;28;19932;-75
2023/02/11 02:38:51;;;;;;;;;;;17.00;46.30;;;;;;5003093;28;19920;-74
2023/02/11 02:41:18;;;;;;;;;;;17.00;46.20;;;;;;5003311;28;19965;-77
2023/02/11 02:43:46;;;;;;;;;;;17.10;46.00;;;;;;5003185;28;19910;-75
2023/02/11 02:46:17;;;;;;;;;;;17.10;45.90;;;;;;5003030;28;19905;-76
2023/02/11 02:48:43;;;;;;;;;;;17.10;45.90;;;;;;5002962;28;20121;-76
2023/02/11 02:51:27;;;;;;;;;;;17.10;45.80;;;;;;5002730;28;19916;-74
2023/02/11 02:54:05;;;;;;;;;;;17.10;46.00;;;;;;5002766;28;19933;-75
2023/02/11 02:56:44;;;;;;;;;;;17.10;46.00;;;;;;5002734;28;19909;-77
2023/02/11 02:59:10;;;;;;;;;;;17.10;45.90;;;;;;5002822;28;19918;-76
2023/02/11 03:01:43;;;;;;;;;;;17.20;45.80;;;;;;5002721;28;20045;-77
2023/02/11 03:04:18;;;;;;;;;;;17.30;45.80;;;;;;5002637;28;19956;-75
2023/02/11 03:07:06;;;;;;;;;;;17.20;45.80;;;;;;5002693;28;19913;-76
2023/02/11 03:09:38;;;;;;;;;;;17.20;46.00;;;;;;5002400;28;20202;-73
2023/02/11 03:12:05;;;;;;;;;;;17.10;46.10;;;;;;5001173;28;20109;-75
2023/02/11 03:14:31;;;;;;;;;;;17.00;46.20;;;;;;5002440;28;19909;-75
2023/02/11 03:16:58;;;;;;;;;;;16.90;46.60;;;;;;5002327;28;19906;-77
2023/02/11 03:19:36;;;;;;;;;;;16.80;46.60;;;;;;5002280;28;19972;-76
2023/02/11 03:22:03;;;;;;;;;;;16.80;46.80;;;;;;5002446;28;19913;-76
2023/02/11 03:24:30;;;;;;;;;;;16.70;46.90;;;;;;5000893;28;20098;-76
2023/02/11 03:26:57;;;;;;;;;;;16.60;46.80;;;;;;5002251;28;19960;-76
2023/02/11 03:29:37;;;;;;;;;;;16.60;47.30;;;;;;5002292;28;19910;-74
2023/02/11 03:32:15;;;;;;;;;;;16.50;46.90;;;;;;5002197;28;19941;-75
2023/02/11 03:34:49;;;;;;;;;;;16.50;47.40;;;;;;5001952;28;19953;-75
2023/02/11 03:37:30;;;;;;;;;;;16.40;47.40;;;;;;5000982;28;20218;-75
2023/02/11 03:40:00;;;;;;;;;;;16.40;47.40;;;;;;5001990;28;19948;-75
2023/02/11 03:42:27;;;;;;;;;;;16.40;47.60;;;;;;5001989;28;19974;-77
2023/02/11 03:44:57;;;;;;;;;;;16.50;47.20;;;;;;5001984;28;19916;-76
2023/02/11 03:47:24;;;;;;;;;;;16.50;47.20;;;;;;5001864;28;19909;-73
2023/02/11 03:49:52;;;;;;;;;;;16.60;46.90;;;;;;5001991;28;19910;-75
2023/02/11 03:52:18;;;;;;;;;;;16.70;46.80;;;;;;5001645;28;19984;-75
2023/02/11 03:54:47;;;;;;;;;;;16.80;46.60;;;;;;5001867;28;19910;-77
2023/02/11 03:57:13;;;;;;;;;;;16.80;46.40;;;;;;5001787;28;19910;-74
2023/02/11 03:59:48;;;;;;;;;;;16.80;46.30;;;;;;5001618;28;19920;-75
2023/02/11 04:02:14;;;;;;;;;;;16.80;46.20;;;;;;5001765;28;20101;-74
2023/02/11 04:04:39;;;;;;;;;;;16.80;46.20;;;;;;5001815;28;19972;-74
2023/02/11 04:07:05;;;;;;;;;;;16.90;46.10;;;;;;5001807;28;20224;-76
2023/02/11 04:09:30;;;;;;;;;;;16.90;46.00;;;;;;5001617;28;19909;-74
2023/02/11 04:11:56;;;;;;;;;;;16.90;46.00;;;;;;5000373;28;19948;-75
2023/02/11 04:14:21;;;;;;;;;;;16.90;45.90;;;;;;5001577;28;19932;-77
2023/02/11 04:16:47;;;;;;;;;;;17.00;45.70;;;;;;5000477;28;19917;-75
2023/02/11 04:19:13;;;;;;;;;;;16.90;45.80;;;;;;5001554;28;19992;-75
2023/02/11 04:21:38;;;;;;;;;;;17.00;46.00;;;;;;5001605;28;19910;-72
2023/02/11 04:24:04;;;;;;;;;;;17.00;46.20;;;;;;5001559;28;19910;-76
2023/02/11 04:26:29;;;;;;;;;;;17.00;46.10;;;;;;5001518;28;19909;-76
2023/02/11 04:28:55;;;;;;;;;;;17.10;46.20;;;;;;5001521;28;19909;-76
2023/02/11 04:31:20;;;;;;;;;;;17.10;46.20;;;;;;5001490;28;20344;-76
2023/02/11 04:33:46;;;;;;;;;;;17.10;46.10;;;;;;5001601;28;19910;-76
2023/02/11 04:36:11;;;;;;;;;;;17.00;46.10;;;;;;5000188;28;20176;-75
2023/02/11 04:38:37;;;;;;;;;;;17.00;46.30;;;;;;5001416;28;20201;-75
2023/02/11 04:41:03;;;;;;;;;;;16.80;46.50;;;;;;5001473;28;20075;-75
2023/02/11 04:43:28;;;;;;;;;;;16.80;46.70;;;;;;5001474;28;20249;-73
2023/02/11 04:45:57;;;;;;;;;;;16.70;46.60;;;;;;5001379;28;19941;-74
2023/02/11 04:48:23;;;;;;;;;;;16.60;46.80;;;;;;5003966;28;19901;-75
2023/02/11 04:50:49;;;;;;;;;;;16.60;47.00;;;;;;5003730;28;19956;-73
2023/02/11 04:53:14;;;;;;;;;;;16.50;47.10;;;;;;5004863;28;19920;-74
2023/02/11 04:55:40;;;;;;;;;;;16.40;47.20;;;;;;5005051;28;20194;-74
2023/02/11 04:58:05;;;;;;;;;;;16.40;47.30;;;;;;5004880;28;19929;-75
2023/02/11 05:00:31;;;;;;;;;;;16.30;47.40;;;;;;5004806;28;19914;-75
2023/02/11 05:02:56;;;;;;;;;;;16.30;47.50;;;;;;5005019;28;19909;-75
2023/02/11 05:05:22;;;;;;;;;;;16.30;47.30;;;;;;5004998;28;19920;-75
2023/02/11 05:07:48;;;;;;;;;;;16.40;47.20;;;;;;5004880;28;19902;-76
2023/02/11 05:10:13;;;;;;;;;;;16.40;46.90;;;;;;5004822;28;19933;-77
2023/02/11 05:12:39;;;;;;;;;;;16.60;47.00;;;;;;5004696;28;19981;-75
2023/02/11 05:15:05;;;;;;;;;;;16.60;46.70;;;;;;5004656;28;19981;-75
2023/02/11 05:17:30;;;;;;;;;;;16.70;46.50;;;;;;5004659;28;19909;-76
2023/02/11 05:19:56;;;;;;;;;;;16.80;46.70;;;;;;5003256;28;19913;-74
2023/02/11 05:22:21;;;;;;;;;;;16.80;46.50;;;;;;5003410;28;20000;-75
2023/02/11 05:24:47;;;;;;;;;;;16.80;46.50;;;;;;5004542;28;19952;-75
2023/02/11 05:27:12;;;;;;;;;;;16.80;46.40;;;;;;5004694;28;19937;-73
2023/02/11 05:29:38;;;;;;;;;;;16.90;46.30;;;;;;5003208;28;20243;-75
2023/02/11 05:32:03;;;;;;;;;;;17.00;46.20;;;;;;5004462;28;20247;-76
2023/02/11 05:34:29;;;;;;;;;;;17.00;46.20;;;;;;5004259;28;19901;-75
2023/02/11 05:36:54;;;;;;;;;;;17.00;45.90;;;;;;5004262;28;19984;-75
2023/02/11 05:39:20;;;;;;;;;;;17.10;45.90;;;;;;5002862;28;19936;-74
2023/02/11 05:41:45;;;;;;;;;;;17.10;45.90;;;;;;5004128;28;19929;-75
2023/02/11 05:44:11;;;;;;;;;;;17.00;45.90;;;;;;5002798;28;19952;-74
2023/02/11 05:46:37;;;;;;;;;;;17.00;45.90;;;;;;5004012;28;20201;-76
2023/02/11 05:49:02;;;;;;;;;;;17.00;45.70;;;;;;5004116;28;20011;-75
2023/02/11 05:51:28;;;;;;;;;;;17.10;45.80;;;;;;5002740;28;19918;-74
2023/02/11 05:53:53;;;;;;;;;;;17.10;45.70;;;;;;5004170;28;19901;-75
2023/02/11 05:56:19;;;;;;;;;;;17.10;45.50;;;;;;5002615;28;19976;-76
2023/02/11 05:58:44;;;;;;;;;;;17.20;45.60;;;;;;5003672;28;20216;-76
2023/02/11 06:01:10;;;;;;;;;;;17.10;45.50;;;;;;5003876;28;19909;-76
2023/02/11 06:03:35;;;;;;;;;;;17.10;45.30;;;;;;5003839;28;19909;-73
2023/02/11 06:06:01;;;;;;;;;;;17.10;45.50;;;;;;5003833;28;19945;-77
2023/02/11 06:08:27;;;;;;;;;;;17.00;45.50;;;;;;5002351;28;19917;-76
2023/02/11 06:10:52;;;;;;;;;;;16.90;45.60;;;;;;5003641;28;19910;-74
2023/02/11 06:13:18;;;;;;;;;;;16.80;45.90;;;;;;5003641;28;19940;-76
2023/02/11 06:15:44;;;;;;;;;;;16.70;46.00;;;;;;5003468;28;19910;-74
2023/02/11 06:18:09;;;;;;;;;;;16.60;46.20;;;;;;5003343;28;19969;-76
2023/02/11 06:20:36;;;;;;;;;;;16.60;46.40;;;;;;5003424;28;19913;-77
2023/02/11 06:23:01;;;;;;;;;;;16.50;46.50;;;;;;5003299;28;20125;-76
2023/02/11 06:25:30;;;;;;;;;;;16.50;46.70;;;;;;5002138;28;19910;-74
2023/02/11 06:27:55;;;;;;;;;;;16.40;46.80;;;;;;5003585;28;19909;-75
2023/02/11 06:30:21;;;;;;;;;;;16.40;47.00;;;;;;5003336;28;20082;-73
2023/02/11 06:32:46;;;;;;;;;;;16.30;47.00;;;;;;5003245;28;19916;-75
2023/02/11 06:35:13;;;;;;;;;;;16.30;47.10;;;;;;5003074;28;19909;-76
2023/02/11 06:37:39;;;;;;;;;;;16.40;47.30;;;;;;5003125;28;19906;-74
2023/02/11 06:40:05;;;;;;;;;;;16.50;47.10;;;;;;5002999;28;19952;-76
2023/02/11 06:42:31;;;;;;;;;;;16.60;47.10;;;;;;5001790;28;19901;-75
2023/02/11 06:44:56;;;;;;;;;;;16.70;46.90;;;;;;5003090;28;19909;-75
2023/02/11 06:47:22;;;;;;;;;;;16.80;46.70;;;;;;5002897;28;20217;-76
2023/02/11 06:49:47;;;;;;;;;;;16.90;46.60;;;;;;5002934;28;20358;-75
2023/02/11 06:52:13;;;;;;;;;;;17.00;46.40;;;;;;5002742;28;19914;-76
2023/02/11 06:54:38;;;;;;;;;;;17.00;46.30;;;;;;5002720;28;19937;-75
2023/02/11 06:57:04;;;;;;;;;;;16.90;46.20;;;;;;5002810;28;19909;-74
2023/02/11 06:59:30;;;;;;;;;;;17.00;46.20;;;;;;5002612;28;19952;-75
2023/02/11 07:01:55;;;;;;;;;;;17.10;46.10;;;;;;5002534;28;19901;-76
2023/02/11 07:04:21;;;;;;;;;;;17.10;46.00;;;;;;5002494;28;19909;-76
2023/02/11 07:06:47;;;;;;;;;;;17.10;45.80;;;;;;5002641;28;19913;-72
2023/02/11 07:09:12;;;;;;;;;;;17.20;45.80;;;;;;5002418;28;20114;-75
2023/02/11 07:11:38;;;;;;;;;;;17.20;45.50;;;;;;5000723;28;19953;-76
2023/02/11 07:14:05;;;;;;;;;;;17.20;45.40;;;;;;5002599;28;19909;-75
2023/02/11 07:16:31;;;;;;;;;;;17.20;45.40;;;;;;5001340;28;20016;-74
2023/02/11 07:18:56;;;;;;;;;;;17.20;45.60;;;;;;5002480;28;19920;-76
2023/02/11 07:21:23;;;;;;;;;;;17.30;45.60;;;;;;5002710;28;20412;-76
2023/02/11 07:23:49;;;;;;;;;;;17.30;45.40;;;;;;5002313;28;19917;-74
2023/02/11 07:26:16;;;;;;;;;;;17.40;45.30;;;;;;5002398;28;19902;-76
2023/02/11 07:28:42;;;;;;;;;;;17.40;45.30;;;;;;5001063;28;19901;-76
2023/02/11 07:31:12;;;;;;;;;;;17.40;45.20;;;;;;5002239;28;19909;-73
2023/02/11 07:33:38;;;;;;;;;;;17.40;45.00;;;;;;5002448;28;19909;-76
2023/02/11 07:36:04;;;;;;;;;;;17.40;45.00;;;;;;5002195;28;20049;-75
2023/02/11 07:38:31;;;;;;;;;;;17.40;45.20;;;;;;5000638;28;19910;-75
2023/02/11 07:41:03;;;;;;;;;;;17.40;45.20;;;;;;5002026;28;19964;-76
2023/02/11 07:43:29;;;;;;;;;;;17.40;45.20;;;;;;5001943;28;19937;-74
2023/02/11 07:45:55;;;;;;;;;;;17.40;45.40;;;;;;5000706;28;20240;-76
2023/02/11 07:48:20;;;;;;;;;;;17.30;45.50;;;;;;5001933;28;19909;-75
2023/02/11 07:50:46;;;;;;;;;;;17.20;45.80;;;;;;5001943;28;19902;-75
2023/02/11 07:53:12;;;;;;;;;;;17.10;46.00;;;;;;5001730;28;20036;-76
2023/02/11 07:55:37;;;;;;;;;;;17.10;45.90;;;;;;5001891;28;19917;-74
2023/02/11 07:58:03;;;;;;;;;;;17.00;46.00;;;;;;5001827;28;19909;-73
2023/02/11 08:00:28;;;;;;;;;;;17.00;46.40;;;;;;5001691;28;19996;-72
2023/02/11 08:02:55;;;;;;;;;;;16.90;46.50;;;;;;5001621;28;19910;-75
2023/02/11 08:05:21;;;;;;;;;;;16.90;46.40;;;;;;5001709;28;20102;-73
2023/02/11 08:07:49;;;;;;;;;;;16.80;46.60;;;;;;5001704;28;19902;-75
2023/02/11 08:10:16;;;;;;;;;;;16.80;46.70;;;;;;5001404;28;20388;-75
2023/02/11 08:12:41;;;;;;;;;;;16.80;46.80;;;;;;5001613;28;19916;-71
2023/02/11 08:15:07;;;;;;;;;;;13.30;36.50;;;;;;5001405;28;19917;-73
2023/02/11 08:17:34;;;;;;;;;;;11.40;35.70;;;;;;5001526;28;20121;-76
2023/02/11 08:19:59;;;;;;;;;;;12.70;43.20;;;;;;5000254;28;19913;-72
2023/02/11 08:22:25;;;;;;;;;;;13.40;37.60;;;;;;5004304;28;19917;-74
2023/02/11 08:24:50;;;;;;;;;;;13.70;44.70;;;;;;5005151;28;19901;-73
2023/02/11 08:27:16;;;;;;;;;;;14.80;45.20;;;;;;5005475;28;19909;-75
2023/02/11 08:29:42;;;;;;;;;;;15.50;43.50;;;;;;5005361;28;20244;-74
2023/02/11 08:32:07;;;;;;;;;;;15.90;42.50;;;;;;5005124;28;19910;-74
2023/02/11 08:34:33;;;;;;;;;;;16.30;42.40;;;;;;5003813;28;20273;-74
2023/02/11 08:36:58;;;;;;;;;;;16.50;42.40;;;;;;5004319;28;19901;-73
2023/02/11 08:39:24;;;;;;;;;;;16.70;42.50;;;;;;5004976;28;19963;-73
2023/02/11 08:41:50;;;;;;;;;;;16.90;42.50;;;;;;5003791;28;19945;-72
2023/02/11 08:44:17;;;;;;;;;;;17.00;42.50;;;;;;5005146;28;19941;-76
2023/02/11 08:46:42;;;;;;;;;;;17.20;42.50;;;;;;5003786;28;20114;-74
2023/02/11 08:49:08;;;;;;;;;;;;;;;;;;5004954;28;19945;-75
2023/02/11 08:51:34;;;;;;;;;;;17.40;42.10;;;;;;5004901;28;20343;-74
2023/02/11 08:54:00;;;;;;;;;;;17.40;42.60;;;;;;5005051;28;19925;-74
2023/02/11 08:56:26;;;;;;;;;;;17.50;42.60;;;;;;5004966;28;19917;-75
2023/02/11 08:58:52;;;;;;;;;;;17.60;42.50;;;;;;5004854;28;19909;-75
2023/02/11 09:01:19;;;;;;;;;;;17.70;42.30;;;;;;5003633;28;19916;-75
2023/02/11 09:03:45;;;;;;;;;;;17.80;42.50;;;;;;5005021;28;19925;-74
2023/02/11 09:06:11;;;;;;;;;;;17.80;42.30;;;;;;5003876;28;20220;-75
2023/02/11 09:08:37;;;;;;;;;;;17.80;42.30;;;;;;5005018;28;19914;-74
2023/02/11 09:11:03;;;;;;;;;;;17.80;42.30;;;;;;5004969;28;19973;-75
2023/02/11 09:13:29;;;;;;;;;;;17.70;42.40;;;;;;5003552;28;19908;-74
2023/02/11 09:15:55;;;;;;;;;;;17.70;42.70;;;;;;5004591;28;20113;-74
2023/02/11 09:18:21;;;;;;;;;;;17.70;42.80;;;;;;5004632;28;19909;-74
2023/02/11 09:20:46;;;;;;;;;;;17.60;42.80;;;;;;5004409;28;19910;-73
2023/02/11 09:23:12;;;;;;;;;;;17.60;43.00;;;;;;5003160;28;19976;-75
2023/02/11 09:25:39;;;;;;;;;;;17.60;43.00;;;;;;5004376;28;20358;-74
2023/02/11 09:28:05;;;;;;;;;;;17.50;43.20;;;;;;5004382;28;19901;-75
2023/02/11 09:30:30;;;;;;;;;;;17.50;43.30;;;;;;5004296;28;20146;-73
2023/02/11 09:32:56;;;;;;;;;;;17.50;43.40;;;;;;5003721;28;19910;-74
2023/02/11 09:35:21;;;;;;;;;;;17.40;43.40;;;;;;5004265;28;19940;-74
2023/02/11 09:37:47;;;;;;;;;;;17.40;43.60;;;;;;5004035;28;19917;-75
2023/02/11 09:40:13;;;;;;;;;;;17.40;43.60;;;;;;5003020;28;19921;-75
2023/02/11 09:42:48;;;;;;;;;;;17.40;43.60;;;;;;5004207;28;19909;-75
2023/02/11 09:45:22;;;;;;;;;;;17.50;43.50;;;;;;5003019;28;19913;-75
2023/02/11 09:48:03;;;;;;;;;;;17.60;43.50;;;;;;5004140;28;19910;-75
2023/02/11 09:50:31;;;;;;;;;;;17.70;43.30;;;;;;5003947;28;20109;-72
2023/02/11 09:52:59;;;;;;;;;;;17.80;43.20;;;;;;5003895;28;20412;-75
2023/02/11 09:55:40;;;;;;;;;;;17.80;43.10;;;;;;5002654;28;19908;-74
2023/02/11 09:58:11;;;;;;;;;;;17.90;43.00;;;;;;5003908;28;19981;-74
2023/02/11 10:00:41;;;;;;;;;;;17.90;43.00;;;;;;5003880;28;19913;-75
2023/02/11 10:03:25;;;;;;;;;;;17.90;43.00;;;;;;5003741;28;20038;-76
2023/02/11 10:05:56;;;;;;;;;;;17.90;43.00;;;;;;5003792;28;19949;-76
2023/02/11 10:08:22;;;;;;;;;;;17.90;43.10;;;;;;5003822;28;19933;-75
2023/02/11 10:10:52;;;;;;;;;;;17.90;43.10;;;;;;5003752;28;19910;-73
2023/02/11 10:13:29;;;;;;;;;;;17.90;43.20;;;;;;5002524;28;19921;-75
2023/02/11 10:16:03;;;;;;;;;;;18.00;43.20;;;;;;5003708;28;19908;-75
2023/02/11 10:18:37;;;;;;;;;;;17.90;43.10;;;;;;5003557;28;19990;-75
2023/02/11 10:21:14;;;;;;;;;;;17.90;43.20;;;;;;5003501;28;19910;-75
2023/02/11 10:23:43;;;;;;;;;;;17.90;43.30;;;;;;5003501;28;19909;-75
2023/02/11 10:26:13;;;;;;;;;;;17.90;43.20;;;;;;5003413;28;19987;-75
2023/02/11 10:28:39;;;;;;;;;;;18.00;43.30;;;;;;5002129;28;19929;-72
2023/02/11 10:31:10;;;;;;;;;;;18.00;43.40;;;;;;5003228;28;19947;-75
2023/02/11 10:33:36;;;;;;;;;;;17.90;43.40;;;;;;5003421;28;19908;-74
2023/02/11 10:36:03;;;;;;;;;;;17.90;43.50;;;;;;5003266;28;19973;-75
2023/02/11 10:38:28;;;;;;;;;;;17.90;43.60;;;;;;5003067;28;19909;-74
2023/02/11 10:40:54;;;;;;;;;;;17.90;43.70;;;;;;5003088;28;19949;-76
2023/02/11 10:43:22;;;;;;;;;;;17.80;43.70;;;;;;5003192;28;19909;-74
2023/02/11 10:45:49;;;;;;;;;;;17.80;43.90;;;;;;5002143;28;19917;-76
2023/02/11 10:48:33;;;;;;;;;;;17.70;44.00;;;;;;5002909;28;19972;-73
2023/02/11 10:51:22;;;;;;;;;;;17.80;44.00;;;;;;5002947;28;19916;-76
2023/02/11 10:53:49;;;;;;;;;;;17.70;44.10;;;;;;4997298;28;19928;-76
2023/02/11 10:56:22;;;;;;;;;;;17.70;44.10;;;;;;5002980;28;19910;-75
2023/02/11 10:59:13;;;;;;;;;;;17.70;44.20;;;;;;5002858;28;19928;-76
2023/02/11 11:01:53;;;;;;;;;;;17.60;44.30;;;;;;5002766;28;19910;-76
2023/02/11 11:04:37;;;;;;;;;;;17.60;44.30;;;;;;5002879;28;19910;-76
2023/02/11 11:07:10;;;;;;;;;;;17.60;44.40;;;;;;5002680;28;19910;-72
2023/02/11 11:10:02;;;;;;;;;;;17.60;44.30;;;;;;5001581;28;20108;-75
2023/02/11 11:12:36;;;;;;;;;;;17.60;44.40;;;;;;5000724;28;19910;-76
2023/02/11 11:15:24;;;;;;;;;;;17.60;44.50;;;;;;5002529;28;19902;-76
2023/02/11 11:18:10;;;;;;;;;;;17.60;44.50;;;;;;5002525;28;20368;-76
2023/02/11 11:20:36;;;;;;;;;;;17.70;44.50;;;;;;4995472;28;20212;-75
2023/02/11 11:23:08;;;;;;;;;;;17.70;44.30;;;;;;5001150;28;20096;-77
2023/02/11 11:25:36;;;;;;;;;;;17.80;44.20;;;;;;5002184;28;19901;-75
2023/02/11 11:28:01;;;;;;;;;;;17.90;44.20;;;;;;5002284;28;19936;-76
2023/02/11 11:30:47;;;;;;;;;;;18.00;44.10;;;;;;5002227;28;19915;-74
2023/02/11 11:33:17;;;;;;;;;;;17.90;44.00;;;;;;5001853;28;19917;-75
2023/02/11 11:35:53;;;;;;;;;;;18.00;44.00;;;;;;5002541;28;19942;-73
2023/02/11 11:38:19;;;;;;;;;;;18.00;44.00;;;;;;5000927;28;19944;-76
2023/02/11 11:41:04;;;;;;;;;;;18.00;43.90;;;;;;5002154;28;19910;-74
2023/02/11 11:43:30;;;;;;;;;;;18.00;44.00;;;;;;5001962;28;19973;-76
2023/02/11 11:45:58;;;;;;;;;;;18.10;44.00;;;;;;5001892;28;19910;-74
2023/02/11 11:48:27;;;;;;;;;;;18.10;44.00;;;;;;5002040;28;19914;-75
2023/02/11 11:51:01;;;;;;;;;;;18.10;43.90;;;;;;5002036;28;20211;-74
2023/02/11 11:53:38;;;;;;;;;;;18.10;44.00;;;;;;5002111;28;19921;-76
2023/02/11 11:56:04;;;;;;;;;;;18.10;44.10;;;;;;5001717;28;19910;-74
2023/02/11 11:58:30;;;;;;;;;;;18.10;44.10;;;;;;5001904;28;19981;-75
2023/02/11 12:01:14;;;;;;;;;;;18.10;44.00;;;;;;5001818;28;20178;-76
2023/02/11 12:03:42;;;;;;;;;;;18.10;43.90;;;;;;5001844;28;19916;-75
2023/02/11 12:06:14;;;;;;;;;;;18.10;44.00;;;;;;5000541;28;20097;-77
2023/02/11 12:08:40;;;;;;;;;;;18.00;44.10;;;;;;5001917;28;19913;-77
2023/02/11 12:11:09;;;;;;;;;;;18.00;44.20;;;;;;5000580;28;19902;-74
2023/02/11 12:13:35;;;;;;;;;;;18.00;44.30;;;;;;5001777;28;19905;-75
2023/02/11 12:16:08;;;;;;;;;;;17.90;44.30;;;;;;5001813;28;19944;-74
2023/02/11 12:18:52;;;;;;;;;;;17.90;44.40;;;;;;5001609;28;19909;-74
2023/02/11 12:21:18;;;;;;;;;;;17.90;44.50;;;;;;5000429;28;19960;-75
2023/02/11 12:24:03;;;;;;;;;;;17.90;44.50;;;;;;5001612;28;20205;-75
2023/02/11 12:26:34;;;;;;;;;;;17.80;44.50;;;;;;5001829;28;19902;-76
2023/02/11 12:29:05;;;;;;;;;;;17.80;44.70;;;;;;5001546;28;19905;-75
2023/02/11 12:31:51;;;;;;;;;;;17.80;44.70;;;;;;5001561;28;19909;-74
2023/02/11 12:34:22;;;;;;;;;;;17.70;44.80;;;;;;5001174;28;20275;-76
2023/02/11 12:36:53;;;;;;;;;;;17.70;44.80;;;;;;5001674;28;20122;-74
2023/02/11 12:39:27;;;;;;;;;;;17.70;44.80;;;;;;5001620;28;19905;-74
2023/02/11 12:45:00;;;;;;;;;;;17.80;44.90;;;;;;5001371;28;20217;-75
2023/02/11 12:47:26;;;;;;;;;;;17.80;44.90;;;;;;5001784;28;19910;-75
2023/02/11 12:50:06;;;;;;;;;;;17.80;44.90;;;;;;5001498;28;19977;-76
2023/02/11 12:52:32;;;;;;;;;;;17.80;44.80;;;;;;5001247;28;19913;-76
2023/02/11 12:55:01;;;;;;;;;;;17.80;44.90;;;;;;5001561;28;19948;-74
2023/02/11 12:57:31;;;;;;;;;;;17.80;44.90;;;;;;5000197;28;19916;-76
2023/02/11 13:00:05;;;;;;;;;;;17.80;44.90;;;;;;5001346;28;19921;-74
2023/02/11 13:02:44;;;;;;;;;;;17.80;45.00;;;;;;5001432;28;19968;-76
2023/02/11 13:05:22;;;;;;;;;;;17.80;44.90;;;;;;5001303;28;20112;-76
2023/02/11 13:07:49;;;;;;;;;;;17.90;44.90;;;;;;5001438;28;20399;-74
2023/02/11 13:10:21;;;;;;;;;;;17.90;44.70;;;;;;5004974;28;19901;-75
2023/02/11 13:15:33;;;;;;;;;;;18.00;44.60;;;;;;5004796;28;20181;-75
2023/02/11 13:18:13;;;;;;;;;;;18.10;44.50;;;;;;5004788;28;19908;-75
2023/02/11 13:20:44;;;;;;;;;;;18.10;44.40;;;;;;5004802;28;19913;-74
2023/02/11 13:23:10;;;;;;;;;;;18.10;44.40;;;;;;5004713;28;19973;-76
2023/02/11 13:25:38;;;;;;;;;;;18.20;44.40;;;;;;5004795;28;19909;-77
2023/02/11 13:28:04;;;;;;;;;;;18.20;44.30;;;;;;5004653;28;20108;-76
2023/02/11 13:30:34;;;;;;;;;;;18.30;44.20;;;;;;5004658;28;20214;-75
2023/02/11 13:32:59;;;;;;;;;;;18.30;44.20;;;;;;5004479;28;19908;-75
2023/02/11 13:35:25;;;;;;;;;;;18.30;44.10;;;;;;5004571;28;19901;-76
2023/02/11 13:37:51;;;;;;;;;;;18.30;44.20;;;;;;5004473;28;20145;-75
2023/02/11 13:40:21;;;;;;;;;;;18.20;44.20;;;;;;5004355;28;19949;-75
2023/02/11 13:42:51;;;;;;;;;;;18.20;44.40;;;;;;5004367;28;19924;-75
2023/02/11 13:45:23;;;;;;;;;;;18.20;44.40;;;;;;5004533;28;19910;-73
2023/02/11 13:47:55;;;;;;;;;;;18.20;44.40;;;;;;5004395;28;19917;-75
2023/02/11 13:50:22;;;;;;;;;;;18.20;44.30;;;;;;5004353;28;20211;-75
2023/02/11 13:52:55;;;;;;;;;;;18.10;44.40;;;;;;5004145;28;19967;-75
2023/02/11 13:55:22;;;;;;;;;;;18.00;44.60;;;;;;5004238;28;19910;-75
2023/02/11 13:58:06;;;;;;;;;;;18.00;44.80;;;;;;5004087;28;19929;-75
2023/02/11 14:00:35;;;;;;;;;;;18.00;44.90;;;;;;5004162;28;19914;-72
2023/02/11 14:09:08;;;;;;;;;;;17.90;45.10;;;;;;5003964;28;20220;-74
2023/02/11 14:11:43;;;;;;;;;;;17.90;45.10;;;;;;5003738;28;19916;-74
2023/02/11 14:14:27;;;;;;;;;;;17.90;45.10;;;;;;5003716;28;19909;-75
2023/02/11 14:16:58;;;;;;;;;;;17.90;45.00;;;;;;5002524;28;19910;-73
2023/02/11 14:19:31;;;;;;;;;;;17.90;45.00;;;;;;5003430;28;20008;-75
2023/02/11 14:22:04;;;;;;;;;;;17.80;45.10;;;;;;5003460;28;19914;-75
2023/02/11 14:24:36;;;;;;;;;;;17.80;45.10;;;;;;5003476;28;19909;-75
2023/02/11 14:27:08;;;;;;;;;;;17.90;45.10;;;;;;5003376;28;19933;-74
2023/02/11 14:29:43;;;;;;;;;;;17.90;45.00;;;;;;5003359;28;19916;-74
2023/02/11 14:32:08;;;;;;;;;;;17.90;44.90;;;;;;5003573;28;19909;-76
2023/02/11 14:34:52;;;;;;;;;;;18.00;44.80;;;;;;5003337;28;20300;-74
2023/02/11 14:37:25;;;;;;;;;;;18.00;44.80;;;;;;5003220;28;19901;-75
2023/02/11 14:39:57;;;;;;;;;;;18.10;44.70;;;;;;5003097;28;19941;-75
2023/02/11 14:42:25;;;;;;;;;;;18.10;44.70;;;;;;5003033;28;19914;-74